Time;durP1;ratioP1;P1;durP2;ratioP2;P2;SDS_P1;SDS_P2;PMS_P1;PMS_P2;Temp;Humidity;BMP_temperature;BMP_pressure;BME280_temperature;BME280_humidity;BME280_pressure;Samples;Min_cycle;Max_cycle;Signal;HPM_P1;HPM_P2
2022/08/18 00:00:46;;;;;;;9.73;4.72;;;;;;;20.20;81.58;100857.78;4988016;28;20117;-73
2022/08/18 00:03:12;;;;;;;7.50;4.75;;;;;;;20.29;81.19;100861.97;5009741;28;20022;-75
2022/08/18 00:05:37;;;;;;;6.07;5.10;;;;;;;20.50;81.08;100863.53;4996479;28;20030;-72
2022/08/18 00:08:04;;;;;;;6.63;5.15;;;;;;;20.60;80.39;100863.00;5001662;28;20073;-73
2022/08/18 00:10:31;;;;;;;7.57;5.57;;;;;;;20.71;80.29;100864.19;4999752;28;20088;-73
2022/08/18 00:12:57;;;;;;;7.25;5.53;;;;;;;20.71;80.39;100865.03;5007663;28;20022;-73
2022/08/18 00:15:22;;;;;;;9.00;5.68;;;;;;;20.75;80.18;100860.78;4992392;28;20073;-73
2022/08/18 00:17:48;;;;;;;6.88;5.22;;;;;;;20.81;80.29;100859.88;4991804;28;20019;-73
2022/08/18 00:20:21;;;;;;;7.90;5.88;;;;;;;20.89;79.79;100860.66;4991629;28;20014;-73
2022/08/18 00:22:47;;;;;;;6.32;5.70;;;;;;;20.92;80.25;100861.03;5013101;28;20134;-73
2022/08/18 00:25:14;;;;;;;6.78;5.60;;;;;;;21.06;79.58;100861.75;5001864;28;20022;-73
2022/08/18 00:27:41;;;;;;;10.23;6.05;;;;;;;21.04;79.61;100848.22;4994520;28;20089;-73
2022/08/18 00:30:12;;;;;;;11.70;6.18;;;;;;;21.05;79.72;100849.88;5000226;28;20029;-73
2022/08/18 00:32:58;;;;;;;9.93;6.68;;;;;;;21.06;79.37;100856.22;5011207;28;20062;-72
2022/08/18 00:35:30;;;;;;;9.68;6.75;;;;;;;21.04;79.88;100852.88;5012082;28;20024;-73
2022/08/18 00:37:58;;;;;;;12.45;7.30;;;;;;;20.98;79.86;100856.53;4994160;28;20029;-73
2022/08/18 00:40:29;;;;;;;10.57;6.20;;;;;;;20.95;80.16;100849.59;5003370;28;20028;-73
2022/08/18 00:42:58;;;;;;;10.52;7.50;;;;;;;20.92;80.20;100851.94;4999352;28;20025;-73
2022/08/18 00:45:35;;;;;;;9.25;7.22;;;;;;;20.82;80.71;100853.31;5003056;28;20477;-73
2022/08/18 00:48:02;;;;;;;15.80;11.60;;;;;;;20.82;81.43;100852.47;4994590;28;20022;-71
2022/08/18 00:50:33;;;;;;;12.05;8.68;;;;;;;20.93;80.50;100845.34;5004730;28;20030;-72
2022/08/18 00:53:03;;;;;;;14.48;7.75;;;;;;;20.75;81.25;100838.78;4994990;28;20046;-72
2022/08/18 00:55:32;;;;;;;11.57;8.80;;;;;;;20.86;80.79;100840.78;5003175;28;20032;-72
2022/08/18 00:58:10;;;;;;;14.07;8.02;;;;;;;20.71;82.19;100837.53;5004176;28;20026;-73
2022/08/18 01:00:36;;;;;;;14.68;8.50;;;;;;;20.71;81.96;100837.53;5011040;28;20026;-71
2022/08/18 01:03:11;;;;;;;15.35;9.57;;;;;;;20.59;82.52;100839.34;4996808;28;20090;-72
2022/08/18 01:05:51;;;;;;;11.57;9.02;;;;;;;20.54;82.92;100831.78;5001426;28;20030;-72
2022/08/18 01:08:16;;;;;;;13.38;10.70;;;;;;;20.46;83.23;100823.78;5002076;28;20019;-72
2022/08/18 01:10:42;;;;;;;18.63;11.55;;;;;;;20.56;82.79;100828.78;4994455;28;20477;-72
2022/08/18 01:13:08;;;;;;;16.42;11.05;;;;;;;20.47;83.12;100836.47;5008777;28;20034;-71
2022/08/18 01:15:34;;;;;;;12.98;11.18;;;;;;;20.61;82.42;100836.38;5000076;28;20080;-72
2022/08/18 01:23:54;;;;;;;13.23;11.43;;;;;;;20.76;81.29;100839.63;4990375;28;20040;-71
2022/08/18 01:26:21;;;;;;;13.98;11.90;;;;;;;20.49;82.52;100833.50;5000448;28;20118;-72
2022/08/18 01:28:48;;;;;;;11.23;10.02;;;;;;;20.62;81.87;100838.91;5001302;28;20026;-72
2022/08/18 01:31:33;;;;;;;15.88;12.05;;;;;;;20.63;81.47;100840.56;4992135;28;20121;-72
2022/08/18 01:33:59;;;;;;;15.15;12.80;;;;;;;20.60;81.58;100832.75;5001940;28;20457;-72
2022/08/18 01:36:25;;;;;;;14.80;12.27;;;;;;;20.61;81.90;100836.38;5003213;28;20026;-72
2022/08/18 01:38:52;;;;;;;15.27;10.65;;;;;;;20.48;82.05;100831.84;4993835;28;20081;-72
2022/08/18 01:41:20;;;;;;;16.77;12.55;;;;;;;20.56;81.60;100831.53;4992219;28;20093;-73
2022/08/18 01:43:46;;;;;;;13.13;11.82;;;;;;;20.59;81.50;100834.66;4995758;28;20018;-73
2022/08/18 01:46:12;;;;;;;15.13;11.95;;;;;;;20.53;81.49;100834.72;4999969;28;20076;-72
2022/08/18 01:48:38;;;;;;;19.40;12.30;;;;;;;20.54;81.20;100834.53;5002288;28;20026;-72
2022/08/18 01:51:08;;;;;;;17.02;12.18;;;;;;;20.58;81.03;100826.66;4999837;28;20030;-72
2022/08/18 01:53:35;;;;;;;19.45;11.43;;;;;;;20.58;80.57;100837.66;4994572;28;20508;-72
2022/08/18 01:56:04;;;;;;;20.08;11.48;;;;;;;20.62;80.42;100844.41;4991650;28;20010;-72
2022/08/18 01:58:29;;;;;;;12.93;10.73;;;;;;;20.64;80.27;100836.75;5001256;28;20058;-72
2022/08/18 02:00:56;;;;;;;19.40;11.38;;;;;;;20.64;80.50;100836.75;4994608;28;20108;-71
2022/08/18 02:03:25;;;;;;;25.58;13.30;;;;;;;20.63;80.38;100835.06;5004425;28;20018;-72
2022/08/18 02:05:57;;;;;;;16.02;11.98;;;;;;;20.56;80.54;100834.28;4992046;28;20031;-72
2022/08/18 02:08:23;;;;;;;18.13;12.13;;;;;;;20.62;80.01;100827.88;4996003;28;20022;-72
2022/08/18 02:10:48;;;;;;;14.55;10.95;;;;;;;20.38;80.44;100834.19;5002963;28;20040;-71
2022/08/18 02:13:13;;;;;;;17.58;12.13;;;;;;;20.39;80.82;100833.13;4998366;28;20029;-72
2022/08/18 02:15:39;;;;;;;13.38;11.52;;;;;;;20.19;81.16;100836.88;4998417;28;20033;-72
2022/08/18 02:18:04;;;;;;;13.15;11.75;;;;;;;20.20;81.41;100830.28;5000962;28;20049;-72
2022/08/18 02:20:31;;;;;;;16.10;11.85;;;;;;;19.97;82.18;100835.56;4994151;28;20069;-71
2022/08/18 02:22:57;;;;;;;19.42;11.75;;;;;;;20.16;81.00;100834.56;5000753;28;20026;-72
2022/08/18 02:25:23;;;;;;;14.13;12.48;;;;;;;20.12;81.79;100837.97;4998331;28;20029;-72
2022/08/18 02:27:49;;;;;;;15.98;11.80;;;;;;;20.09;81.39;100832.94;4997720;28;20038;-71
2022/08/18 02:30:17;;;;;;;19.27;13.85;;;;;;;20.23;81.52;100831.78;4993491;28;20095;-71
2022/08/18 02:32:43;;;;;;;20.15;13.50;;;;;;;20.32;80.12;100834.00;4996787;28;20038;-72
2022/08/18 02:35:10;;;;;;;16.17;12.85;;;;;;;20.07;81.68;100830.41;5004839;28;20025;-72
2022/08/18 02:37:36;;;;;;;14.27;11.88;;;;;;;20.02;81.45;100833.00;4993481;28;20030;-72
2022/08/18 02:40:02;;;;;;;21.25;13.20;;;;;;;20.19;80.87;100825.88;4995368;28;20511;-72
2022/08/18 02:42:27;;;;;;;14.30;11.88;;;;;;;20.25;80.59;100824.97;4994686;28;20021;-72
2022/08/18 02:44:53;;;;;;;15.77;11.82;;;;;;;20.26;80.33;100818.41;4993183;28;20026;-72
2022/08/18 02:47:20;;;;;;;15.15;12.05;;;;;;;20.31;80.40;100829.59;4996550;28;20056;-72
2022/08/18 02:49:46;;;;;;;17.95;11.68;;;;;;;20.09;80.94;100828.28;4994587;28;20053;-72
2022/08/18 02:52:11;;;;;;;21.17;13.15;;;;;;;19.98;81.28;100823.50;4995458;28;20058;-72
2022/08/18 02:54:37;;;;;;;17.90;12.77;;;;;;;20.08;80.91;100821.06;5002886;28;20485;-72
2022/08/18 02:57:09;;;;;;;18.90;14.40;;;;;;;20.16;80.70;100823.56;4994802;28;20026;-72
2022/08/18 02:59:37;;;;;;;19.13;13.35;;;;;;;20.11;80.58;100825.31;4993888;28;20018;-73
2022/08/18 03:02:04;;;;;;;22.88;14.75;;;;;;;19.96;81.70;100828.38;4998485;28;20075;-72
2022/08/18 03:04:30;;;;;;;17.77;14.23;;;;;;;19.67;83.26;100830.63;4993568;28;20065;-72
2022/08/18 03:06:58;;;;;;;18.92;15.00;;;;;;;19.65;83.48;100826.44;4997485;28;20025;-72
2022/08/18 03:09:23;;;;;;;24.23;14.68;;;;;;;19.64;83.26;100836.56;4995359;28;20101;-72
2022/08/18 03:11:49;;;;;;;22.33;15.27;;;;;;;19.85;82.63;100831.81;4996212;28;20057;-73
2022/08/18 03:14:15;;;;;;;26.88;17.50;;;;;;;19.81;82.57;100827.81;5000056;28;20045;-72
2022/08/18 03:16:44;;;;;;;20.92;16.88;;;;;;;19.74;82.85;100831.44;4993515;28;20041;-72
2022/08/18 03:19:10;;;;;;;21.67;15.27;;;;;;;19.60;83.88;100824.31;4993405;28;20505;-73
2022/08/18 03:21:36;;;;;;;21.20;17.05;;;;;;;19.70;83.05;100832.97;4996030;28;20037;-72
2022/08/18 03:24:03;;;;;;;21.15;16.33;;;;;;;19.53;84.43;100834.47;4994158;28;20027;-72
2022/08/18 03:26:31;;;;;;;22.40;19.10;;;;;;;19.55;84.71;100829.59;5000264;28;20092;-72
2022/08/18 03:28:59;;;;;;;18.20;16.20;;;;;;;19.56;84.65;100828.56;4993982;28;20564;-73
2022/08/18 03:31:27;;;;;;;22.42;16.58;;;;;;;19.44;84.71;100833.06;4995708;28;20477;-73
2022/08/18 03:33:54;;;;;;;25.13;15.02;;;;;;;19.52;85.25;100830.88;5000154;28;20072;-73
2022/08/18 03:36:23;;;;;;;21.27;16.10;;;;;;;19.67;84.43;100836.13;4992227;28;20089;-73
2022/08/18 03:38:50;;;;;;;22.40;14.15;;;;;;;19.63;84.87;100834.91;4996823;28;20033;-73
2022/08/18 03:41:18;;;;;;;25.75;17.27;;;;;;;19.73;83.64;100835.25;4993938;28;20113;-73
2022/08/18 03:43:43;;;;;;;20.48;16.40;;;;;;;19.61;83.91;100841.66;4995761;28;20026;-73
2022/08/18 03:46:12;;;;;;;23.40;15.32;;;;;;;19.33;85.38;100839.22;4998630;28;20034;-73
2022/08/18 03:48:39;;;;;;;29.35;15.07;;;;;;;19.68;83.85;100846.03;4992113;28;20037;-73
2022/08/18 03:51:18;;;;;;;27.20;16.65;;;;;;;19.54;84.13;100841.66;5000109;28;20104;-73
2022/08/18 03:53:47;;;;;;;17.45;14.45;;;;;;;19.63;83.49;100851.38;4989699;28;20055;-74
2022/08/18 03:56:23;;;;;;;22.65;14.88;;;;;;;19.63;83.20;100843.13;4995385;28;20018;-73
2022/08/18 03:59:12;;;;;;;19.52;15.55;;;;;;;19.58;83.80;100853.94;5000469;28;20049;-72
2022/08/18 04:01:40;;;;;;;20.65;16.30;;;;;;;19.41;84.48;100852.69;4997205;28;20018;-72
2022/08/18 04:04:09;;;;;;;20.23;15.57;;;;;;;19.37;85.09;100863.28;4996702;28;20026;-71
2022/08/18 04:06:41;;;;;;;23.90;15.75;;;;;;;19.32;85.18;100864.97;4991418;28;20396;-74
2022/08/18 04:09:09;;;;;;;18.85;15.90;;;;;;;19.34;84.82;100868.34;4991988;28;20037;-72
2022/08/18 04:11:36;;;;;;;20.73;14.23;;;;;;;19.51;84.07;100864.06;5001223;28;20503;-72
2022/08/18 04:14:03;;;;;;;18.13;14.02;;;;;;;19.69;83.18;100869.72;4983118;28;20049;-72
2022/08/18 04:16:37;;;;;;;17.20;14.07;;;;;;;19.67;82.85;100873.75;4991831;28;20026;-72
2022/08/18 04:19:03;;;;;;;19.75;14.05;;;;;;;19.68;82.83;100865.28;4997413;28;20058;-72
2022/08/18 04:21:35;;;;;;;21.15;14.55;;;;;;;19.44;83.98;100860.50;4991584;28;20054;-72
2022/08/18 04:24:03;;;;;;;21.75;15.10;;;;;;;19.59;83.43;100855.59;4994687;28;20117;-71
2022/08/18 04:26:37;;;;;;;22.50;16.08;;;;;;;19.43;84.65;100850.56;5001446;28;20017;-72
2022/08/18 04:29:04;;;;;;;16.83;13.75;;;;;;;19.60;83.91;100857.28;4993629;28;20026;-72
2022/08/18 04:31:30;;;;;;;16.42;14.70;;;;;;;19.65;83.87;100849.25;4985997;28;20026;-73
2022/08/18 04:33:58;;;;;;;20.33;14.68;;;;;;;19.68;83.89;100848.78;5000319;28;20108;-72
2022/08/18 04:36:24;;;;;;;15.93;13.85;;;;;;;19.81;83.07;100858.03;4993880;28;20357;-72
2022/08/18 04:38:50;;;;;;;23.13;14.48;;;;;;;19.93;82.54;100850.78;4998014;28;20081;-72
2022/08/18 04:41:15;;;;;;;16.80;14.55;;;;;;;19.92;82.44;100849.94;4993386;28;20386;-72
2022/08/18 04:43:41;;;;;;;19.52;14.18;;;;;;;19.87;82.90;100857.16;4994859;28;20054;-71
2022/08/18 04:46:07;;;;;;;23.27;14.88;;;;;;;19.71;83.52;100847.53;4996777;28;20052;-73
2022/08/18 04:48:36;;;;;;;20.42;14.82;;;;;;;19.63;83.68;100859.63;5003161;28;20031;-72
2022/08/18 04:51:03;;;;;;;20.77;14.00;;;;;;;19.67;83.59;100858.09;4992363;28;20038;-71
2022/08/18 04:53:44;;;;;;;20.90;13.55;;;;;;;19.91;83.72;100861.16;4991154;28;20026;-73
2022/08/18 04:56:25;;;;;;;18.13;13.32;;;;;;;19.85;83.69;100853.78;4990988;28;20010;-73
2022/08/18 04:58:56;;;;;;;20.08;13.40;;;;;;;20.04;83.00;100858.34;4989602;28;20072;-72
2022/08/18 05:03:51;;;;;;;21.10;12.73;;;;;;;20.33;82.19;100857.69;4943986;28;20043;-69
2022/08/18 05:06:18;;;;;;;16.02;12.77;;;;;;;20.38;81.53;100850.69;4948656;29;20047;-71
2022/08/18 05:08:44;;;;;;;15.77;12.52;;;;;;;20.45;80.46;100854.25;4950127;29;20035;-73
2022/08/18 05:11:09;;;;;;;19.13;13.05;;;;;;;20.56;79.80;100851.63;4951479;29;20030;-72
2022/08/18 05:13:35;;;;;;;21.05;13.40;;;;;;;20.56;80.06;100857.13;4948402;29;20032;-73
2022/08/18 05:16:02;;;;;;;17.15;13.60;;;;;;;20.57;79.92;100863.47;4943118;28;20027;-74
2022/08/18 05:18:33;;;;;;;22.05;13.02;;;;;;;20.62;80.32;100866.41;4947140;28;20015;-72
2022/08/18 05:20:59;;;;;;;20.92;14.20;;;;;;;20.84;79.49;100867.69;4962618;28;20027;-72
2022/08/18 05:23:26;;;;;;;24.95;15.73;;;;;;;20.88;79.50;100864.50;4951612;28;20125;-73
2022/08/18 05:26:02;;;;;;;20.45;13.80;;;;;;;20.69;79.78;100858.94;4955302;28;20026;-72
2022/08/18 05:28:29;;;;;;;21.55;13.52;;;;;;;20.68;80.34;100859.16;4954205;28;20035;-73
2022/08/18 05:30:54;;;;;;;17.77;13.60;;;;;;;20.84;80.77;100864.91;4960507;28;20083;-72
2022/08/18 05:33:19;;;;;;;23.33;13.18;;;;;;;20.85;79.82;100866.59;4970776;28;20087;-73
2022/08/18 05:35:50;;;;;;;20.65;14.50;;;;;;;21.05;78.72;100873.81;4955158;28;20055;-73
2022/08/18 05:38:32;;;;;;;23.52;14.50;;;;;;;21.20;78.65;100868.81;4954068;28;20020;-70
2022/08/18 05:41:18;;;;;;;27.05;12.85;;;;;;;21.16;78.23;100873.09;4950641;29;20023;-72
2022/08/18 05:43:45;;;;;;;20.92;13.15;;;;;;;21.02;79.30;100875.13;4949488;28;20034;-70
2022/08/18 05:46:11;;;;;;;21.05;13.63;;;;;;;20.86;79.93;100865.56;4950322;28;20059;-71
2022/08/18 05:48:37;;;;;;;21.95;12.65;;;;;;;20.83;80.47;100868.75;4953229;28;20051;-72
2022/08/18 05:51:13;;;;;;;23.17;13.40;;;;;;;20.95;79.71;100870.78;4955127;28;20035;-71
2022/08/18 05:56:46;;;;;;;19.52;12.23;;;;;;;21.22;78.20;100863.06;4948867;29;20102;-70
2022/08/18 05:59:39;;;;;;;18.83;13.30;;;;;;;21.12;78.70;100855.31;4955150;29;20019;-72
2022/08/18 06:02:17;;;;;;;25.48;12.90;;;;;;;21.07;79.70;100846.94;4950520;29;20106;-73
2022/08/18 06:04:58;;;;;;;21.02;14.45;;;;;;;21.11;78.43;100859.16;4955698;29;20023;-72
2022/08/18 06:07:34;;;;;;;22.17;13.98;;;;;;;21.12;79.02;100867.19;4951782;29;20035;-71
2022/08/18 06:10:01;;;;;;;21.60;13.95;;;;;;;21.16;78.92;100867.56;4950525;28;20070;-73
2022/08/18 06:12:33;;;;;;;21.67;14.43;;;;;;;21.14;79.59;100869.72;4966697;28;20042;-72
2022/08/18 06:15:08;;;;;;;28.05;14.57;;;;;;;21.09;79.05;100872.31;4952057;28;20020;-72
2022/08/18 06:17:36;;;;;;;24.27;14.63;;;;;;;21.12;79.71;100877.34;4954078;29;20442;-73
2022/08/18 06:20:19;;;;;;;23.80;16.90;;;;;;;21.05;79.64;100876.56;4955286;29;20031;-73
2022/08/18 06:23:13;;;;;;;25.20;14.43;;;;;;;21.16;80.42;100862.06;4954667;29;20031;-73
2022/08/18 06:26:18;;;;;;;19.75;14.55;;;;;;;21.25;80.39;100876.38;4950844;28;20087;-72
2022/08/18 06:29:23;;;;;;;27.27;16.27;;;;;;;21.21;80.43;100878.75;4951902;29;20039;-73
2022/08/18 06:32:33;;;;;;;29.27;16.25;;;;;;;21.32;79.88;100883.53;4948077;28;20144;-72
2022/08/18 06:35:23;;;;;;;30.92;17.63;;;;;;;21.21;80.65;100881.50;4942536;29;20031;-73
2022/08/18 06:40:35;;;;;;;25.88;18.45;;;;;;;21.08;81.48;100887.16;4953913;28;20038;-75
2022/08/18 06:43:01;;;;;;;29.58;18.63;;;;;;;21.22;80.90;100888.69;4954043;29;20019;-73
2022/08/18 06:45:40;;;;;;;34.78;19.25;;;;;;;21.28;81.32;100886.94;4954965;28;20035;-71
2022/08/18 06:48:17;;;;;;;33.92;19.13;;;;;;;21.25;81.11;100892.88;4954981;28;20047;-72
2022/08/18 06:50:54;;;;;;;35.30;20.02;;;;;;;21.17;81.22;100902.28;4948980;28;20119;-69
2022/08/18 06:53:20;;;;;;;33.28;19.67;;;;;;;21.18;81.05;100895.72;4944932;28;20139;-72
2022/08/18 06:55:49;;;;;;;33.55;20.58;;;;;;;21.13;81.44;100906.59;4946977;29;20151;-73
2022/08/18 06:58:14;;;;;;;32.42;19.55;;;;;;;20.94;81.82;100904.88;4951430;28;20027;-71
2022/08/18 07:00:58;;;;;;;34.03;21.20;;;;;;;20.89;81.65;100904.69;4951076;28;20050;-72
2022/08/18 07:03:58;;;;;;;31.50;19.23;;;;;;;20.91;81.45;100913.56;4946494;28;20059;-70
2022/08/18 07:06:28;;;;;;;30.13;20.63;;;;;;;21.13;81.24;100917.59;4951912;28;20028;-74
2022/08/18 07:09:14;;;;;;;32.35;20.10;;;;;;;21.02;81.68;100915.59;4947046;28;20027;-72
2022/08/18 07:11:42;;;;;;;35.30;20.88;;;;;;;20.92;82.95;100920.75;4952800;28;20049;-74
2022/08/18 07:14:10;;;;;;;29.67;20.80;;;;;;;21.12;81.14;100926.91;4957435;28;20030;-69
2022/08/18 07:16:35;;;;;;;29.45;21.35;;;;;;;21.31;81.22;100923.16;4964975;28;20026;-70
2022/08/18 07:19:08;;;;;;;43.47;27.38;;;;;;;21.29;81.21;100928.06;4948360;28;20034;-72
2022/08/18 07:21:36;;;;;;;45.13;33.65;;;;;;;21.33;80.71;100921.03;4950666;28;20031;-72
2022/08/18 07:24:18;;;;;;;66.35;43.78;;;;;;;20.97;82.37;100934.69;4947654;28;20058;-71
2022/08/18 07:27:04;;;;;;;67.63;44.83;;;;;;;21.03;81.87;100933.78;4947875;28;20027;-72
2022/08/18 07:29:33;;;;;;;64.47;43.10;;;;;;;20.74;82.86;100929.81;4947255;28;20050;-71
2022/08/18 07:32:05;;;;;;;66.95;43.53;;;;;;;20.84;83.24;100936.47;4948596;28;20027;-69
2022/08/18 07:34:45;;;;;;;76.85;45.53;;;;;;;20.75;83.06;100943.34;4946096;28;20031;-70
2022/08/18 07:37:47;;;;;;;93.47;51.83;;;;;;;20.18;86.08;100936.06;4948699;28;20019;-70
2022/08/18 07:40:28;;;;;;;103.07;54.95;;;;;;;19.81;87.80;100956.94;4942203;28;20035;-71
2022/08/18 07:43:03;;;;;;;106.40;56.40;;;;;;;19.75;88.82;100954.00;4948747;28;20070;-72
2022/08/18 07:45:32;;;;;;;115.22;60.30;;;;;;;19.70;89.13;100951.09;4949688;28;20033;-72
2022/08/18 07:48:06;;;;;;;103.28;53.97;;;;;;;19.73;89.46;100953.38;4950150;28;20498;-69
2022/08/18 07:50:51;;;;;;;99.18;50.60;;;;;;;19.86;88.04;100954.41;4945788;28;20028;-71
2022/08/18 07:53:33;;;;;;;75.00;45.60;;;;;;;19.94;87.08;100946.75;4958661;28;20056;-72
2022/08/18 07:56:05;;;;;;;84.07;46.78;;;;;;;19.83;87.26;100954.84;4963868;28;20078;-72
2022/08/18 07:58:44;;;;;;;73.75;44.60;;;;;;;20.03;86.99;100956.44;4947778;28;20038;-71
2022/08/18 08:01:48;;;;;;;86.60;47.47;;;;;;;20.14;86.20;100963.16;4961124;28;20035;-73
2022/08/18 08:04:45;;;;;;;81.28;47.58;;;;;;;19.94;86.88;100967.88;4943110;28;20118;-71
2022/08/18 08:07:15;;;;;;;78.35;50.33;;;;;;;19.85;87.59;100985.69;4921394;28;20046;-69
2022/08/18 08:10:02;;;;;;;76.95;46.33;;;;;;;19.85;87.68;100991.19;4945158;28;20024;-72
2022/08/18 08:12:42;;;;;;;78.80;44.97;;;;;;;19.99;87.50;100981.81;4948618;28;20031;-72
2022/08/18 08:15:26;;;;;;;74.50;46.22;;;;;;;20.12;86.36;100976.28;4947739;28;20066;-71
2022/08/18 08:18:21;;;;;;;88.53;52.38;;;;;;;20.00;87.32;100978.00;4947394;28;20027;-70
2022/08/18 08:20:56;;;;;;;93.90;56.53;;;;;;;19.88;87.44;100979.75;4944206;28;20035;-72
2022/08/18 08:23:22;;;;;;;90.35;51.28;;;;;;;19.99;87.07;100977.16;4946681;28;20027;-72
2022/08/18 08:25:51;;;;;;;115.03;57.20;;;;;;;20.12;86.07;100987.28;4947506;28;20042;-71
2022/08/18 08:28:20;;;;;;;112.28;56.15;;;;;;;19.96;86.74;100993.28;4951600;28;20031;-73
2022/08/18 08:31:08;;;;;;;116.40;56.47;;;;;;;19.99;86.44;100987.31;4947759;28;20027;-71
2022/08/18 08:33:46;;;;;;;125.35;57.97;;;;;;;20.05;86.39;100978.22;4945217;28;20043;-73
2022/08/18 08:36:32;;;;;;;135.88;61.45;;;;;;;20.13;86.28;100983.44;4948323;28;20019;-73
2022/08/18 08:39:05;;;;;;;128.38;59.75;;;;;;;20.19;86.02;100982.56;4946868;28;20030;-71
2022/08/18 08:41:39;;;;;;;124.45;57.80;;;;;;;20.13;85.80;100988.94;4947181;28;20027;-70
2022/08/18 08:44:12;;;;;;;139.80;58.78;;;;;;;20.03;86.58;100977.59;4948152;28;20032;-73
2022/08/18 08:46:47;;;;;;;113.70;51.42;;;;;;;20.39;84.60;100976.13;4944135;28;20031;-74
2022/08/18 08:49:29;;;;;;;82.55;43.70;;;;;;;20.58;82.64;100980.69;4945935;28;20052;-72
2022/08/18 08:52:06;;;;;;;72.32;41.95;;;;;;;20.76;81.86;100980.78;4947710;28;20023;-72
2022/08/18 08:54:54;;;;;;;77.30;40.38;;;;;;;20.73;81.73;100977.63;4953028;28;20027;-72
2022/08/18 08:57:25;;;;;;;76.65;42.60;;;;;;;20.74;82.06;100968.34;4962038;28;20019;-70
2022/08/18 08:59:51;;;;;;;71.10;39.23;;;;;;;20.96;81.09;100971.53;4949442;28;20026;-71
2022/08/18 09:02:46;;;;;;;63.80;38.45;;;;;;;21.04;80.36;100985.03;4951019;28;20063;-71
2022/08/18 09:05:23;;;;;;;60.42;35.95;;;;;;;21.15;78.81;100987.06;4950589;28;20034;-71
2022/08/18 09:08:23;;;;;;;60.83;37.05;;;;;;;20.85;80.36;100993.22;4951860;28;20174;-69
2022/08/18 09:11:07;;;;;;;63.35;35.13;;;;;;;21.35;79.02;100982.22;4951882;28;20043;-73
2022/08/18 09:13:41;;;;;;;66.55;37.22;;;;;;;21.22;78.65;100987.00;4951360;28;20034;-72
2022/08/18 09:16:39;;;;;;;56.83;34.20;;;;;;;21.30;78.37;100982.06;4958654;28;20019;-72
2022/08/18 09:19:20;;;;;;;55.15;33.15;;;;;;;21.88;75.87;100976.13;4950869;28;20031;-71
2022/08/18 09:22:08;;;;;;;66.63;34.05;;;;;;;21.74;75.89;100974.63;4946833;28;20070;-70
2022/08/18 09:24:48;;;;;;;50.53;32.00;;;;;;;21.89;76.31;100975.06;4951152;28;20015;-70
2022/08/18 09:27:34;;;;;;;49.10;32.00;;;;;;;21.68;76.69;100981.03;4959451;28;20118;-73
2022/08/18 09:30:02;;;;;;;52.25;33.63;;;;;;;21.97;75.82;100967.56;4949356;28;20170;-72
2022/08/18 09:32:27;;;;;;;53.47;33.00;;;;;;;22.23;74.99;100970.00;4959764;28;20094;-72
2022/08/18 09:35:24;;;;;;;51.03;32.67;;;;;;;22.20;74.37;100979.59;4950881;28;20107;-71
2022/08/18 09:44:10;;;;;;;56.60;35.30;;;;;;;22.20;74.46;100973.22;4952567;28;20023;-70
2022/08/18 09:46:41;;;;;;;65.22;37.28;;;;;;;22.20;74.45;100979.59;4947968;28;20039;-70
2022/08/18 09:49:22;;;;;;;;;;;;;;;22.42;73.98;100985.44;4950590;28;20062;-70
2022/08/18 09:51:57;;;;;;;53.92;34.38;;;;;;;22.33;74.56;100984.09;4957052;28;19910;-72
2022/08/18 09:54:26;;;;;;;58.22;34.10;;;;;;;22.56;73.79;100971.44;4965467;28;20019;-69
2022/08/18 09:56:52;;;;;;;58.58;34.45;;;;;;;22.56;73.71;100982.47;4951498;28;20031;-71
2022/08/18 09:59:34;;;;;;;60.47;36.20;;;;;;;22.58;74.05;100974.84;4949477;28;20483;-72
2022/08/18 10:02:05;;;;;;;66.45;34.47;;;;;;;22.69;73.30;100972.09;4949515;28;20023;-72
2022/08/18 10:04:33;;;;;;;48.00;29.98;;;;;;;22.95;73.16;100970.88;4951387;28;20059;-72
2022/08/18 10:07:30;;;;;;;51.05;32.55;;;;;;;23.27;71.51;100973.28;4951033;28;20102;-73
2022/08/18 10:10:50;;;;;;;54.20;31.77;;;;;;;23.38;70.88;100975.22;4949136;28;20122;-72
2022/08/18 10:13:39;;;;;;;50.08;33.50;;;;;;;23.18;71.02;100969.22;4895370;29;20119;-71
2022/08/18 10:16:30;;;;;;;46.72;33.30;;;;;;;23.17;70.93;100967.53;4950545;28;20114;-73
2022/08/18 10:19:26;;;;;;;56.13;37.55;;;;;;;23.20;70.90;100972.56;4953451;28;20045;-70
2022/08/18 10:21:54;;;;;;;51.58;33.88;;;;;;;23.75;69.22;100963.94;4966626;28;20027;-74
2022/08/18 10:24:22;;;;;;;47.83;32.25;;;;;;;23.98;68.11;100958.31;4962777;28;20073;-73
2022/08/18 10:26:50;;;;;;;48.85;32.70;;;;;;;23.80;68.32;100964.88;4954733;28;20066;-73
2022/08/18 10:29:28;;;;;;;41.42;29.90;;;;;;;23.69;68.95;100959.38;4950142;28;20051;-73
2022/08/18 10:31:53;;;;;;;63.67;30.42;;;;;;;23.95;67.53;100964.34;4959121;28;20043;-70
2022/08/18 10:34:46;;;;;;;48.58;31.67;;;;;;;23.97;67.77;100973.25;4951863;28;20015;-71
2022/08/18 10:37:20;;;;;;;47.40;31.35;;;;;;;23.71;68.36;100979.31;4951955;28;20033;-72
2022/08/18 10:39:54;;;;;;;42.35;30.98;;;;;;;24.09;67.36;100976.81;4948498;28;20078;-72
2022/08/18 10:42:31;;;;;;;41.08;29.83;;;;;;;24.46;66.37;100976.47;4947725;28;20023;-71
2022/08/18 10:45:35;;;;;;;42.40;30.33;;;;;;;24.22;65.89;100980.38;4949053;28;20030;-71
2022/08/18 10:48:03;;;;;;;51.78;31.98;;;;;;;24.12;65.88;100974.63;4951047;28;20035;-72
2022/08/18 10:50:42;;;;;;;45.38;28.83;;;;;;;24.52;65.50;100975.50;4953095;28;20047;-71
2022/08/18 10:53:45;;;;;;;39.28;26.70;;;;;;;25.30;64.28;100975.72;4965671;28;20067;-72
2022/08/18 10:56:39;;;;;;;51.70;32.10;;;;;;;24.41;66.29;100995.75;4945103;28;20023;-72
2022/08/18 10:59:11;;;;;;;35.97;25.98;;;;;;;25.03;64.40;100981.06;4960644;28;20038;-72
2022/08/18 11:01:47;;;;;;;;;;;;;;;25.25;63.48;100981.19;4963155;28;20033;-74
2022/08/18 11:04:25;;;;;;;40.42;28.05;;;;;;;25.48;62.82;100978.22;4949170;28;19926;-73
2022/08/18 11:07:05;;;;;;;49.83;30.67;;;;;;;24.48;65.61;100985.38;4948878;28;20069;-72
2022/08/18 11:09:32;;;;;;;51.22;29.40;;;;;;;24.67;66.07;100979.63;4949203;28;20186;-71
2022/08/18 11:12:00;;;;;;;40.90;27.02;;;;;;;24.60;65.76;100983.38;4947030;28;20031;-71
2022/08/18 11:14:33;;;;;;;37.88;27.80;;;;;;;24.62;64.91;100970.13;4948176;28;20030;-71
2022/08/18 11:17:07;;;;;;;39.25;28.30;;;;;;;24.46;65.88;100975.63;4959414;28;20034;-71
2022/08/18 11:19:45;;;;;;;41.50;28.70;;;;;;;24.57;65.57;100989.41;4946707;28;20065;-72
2022/08/18 11:22:31;;;;;;;41.17;29.63;;;;;;;24.20;65.39;100988.09;4947995;28;20050;-71
2022/08/18 11:24:56;;;;;;;41.50;28.63;;;;;;;24.37;65.91;100977.94;4948832;28;20023;-70
2022/08/18 11:27:25;;;;;;;33.25;25.60;;;;;;;24.55;65.21;100977.75;4945493;28;20034;-72
2022/08/18 11:29:52;;;;;;;43.47;25.80;;;;;;;24.94;62.89;100988.97;4946870;28;20027;-72
2022/08/18 11:32:26;;;;;;;38.05;26.98;;;;;;;25.03;63.15;100976.38;4947886;28;20438;-72
2022/08/18 11:35:01;;;;;;;30.92;23.92;;;;;;;25.08;63.11;100973.72;4948728;28;20106;-72
2022/08/18 11:37:57;;;;;;;35.47;25.52;;;;;;;24.63;63.89;100974.56;4965192;28;20034;-73
2022/08/18 11:40:32;;;;;;;31.17;23.13;;;;;;;25.32;61.40;100968.00;4948914;28;20029;-71
2022/08/18 11:43:08;;;;;;;35.58;22.83;;;;;;;25.90;60.19;100974.97;4946994;28;20505;-70
2022/08/18 11:45:51;;;;;;;26.85;20.27;;;;;;;25.54;61.70;100966.09;4947527;28;20027;-71
2022/08/18 11:48:19;;;;;;;30.63;21.80;;;;;;;26.13;58.71;100958.03;4942780;28;20027;-73
2022/08/18 11:50:54;;;;;;;24.35;20.50;;;;;;;26.02;59.34;100978.44;4956016;28;20030;-71
2022/08/18 11:53:24;;;;;;;36.03;23.25;;;;;;;25.75;60.47;100971.97;4958487;28;20057;-70
2022/08/18 11:56:03;;;;;;;29.42;24.17;;;;;;;25.67;61.06;100971.28;4944602;28;20024;-70
2022/08/18 11:58:38;;;;;;;30.27;21.30;;;;;;;25.42;61.51;100974.53;4948366;28;20031;-70